sensor_id;sensor_type;location;lat;lon;timestamp;temperature;humidity
354;DHT22;165;53.592;10.044;2022-12-18T09:58:43;1.70;99.90
354;DHT22;165;53.592;10.044;2022-12-18T10:01:14;1.90;99.90
354;DHT22;165;53.592;10.044;2022-12-18T10:03:41;1.60;99.90
354;DHT22;165;53.592;10.044;2022-12-18T10:06:13;1.40;99.90
354;DHT22;165;53.592;10.044;2022-12-18T10:14:36;1.20;99.90
354;DHT22;165;53.592;10.044;2022-12-18T10:17:22;1.30;99.90
354;DHT22;165;53.592;10.044;2022-12-18T10:20:15;1.40;99.90
354;DHT22;165;53.592;10.044;2022-12-18T10:23:13;1.30;99.90
354;DHT22;165;53.592;10.044;2022-12-18T10:28:14;1.50;99.90
354;DHT22;165;53.592;10.044;2022-12-18T10:30:42;1.30;99.90
354;DHT22;165;53.592;10.044;2022-12-18T10:33:17;1.00;99.90
354;DHT22;165;53.592;10.044;2022-12-18T10:35:44;1.00;99.90
354;DHT22;165;53.592;10.044;2022-12-18T10:43:29;0.90;99.90
354;DHT22;165;53.592;10.044;2022-12-18T10:46:04;0.90;99.90
354;DHT22;165;53.592;10.044;2022-12-18T10:48:56;0.60;99.90
354;DHT22;165;53.592;10.044;2022-12-18T10:51:34;0.90;99.90
354;DHT22;165;53.592;10.044;2022-12-18T10:54:06;1.30;99.90
354;DHT22;165;53.592;10.044;2022-12-18T10:56:50;1.10;99.90
354;DHT22;165;53.592;10.044;2022-12-18T10:59:17;1.00;99.90
354;DHT22;165;53.592;10.044;2022-12-18T11:04:21;1.10;99.90
354;DHT22;165;53.592;10.044;2022-12-18T11:06:59;0.90;99.90
354;DHT22;165;53.592;10.044;2022-12-18T11:11:59;1.10;99.90
354;DHT22;165;53.592;10.044;2022-12-18T11:14:34;1.30;99.90
354;DHT22;165;53.592;10.044;2022-12-18T11:17:38;1.30;99.90
354;DHT22;165;53.592;10.044;2022-12-18T11:23:02;1.00;99.90
354;DHT22;165;53.592;10.044;2022-12-18T11:25:29;0.80;99.90
354;DHT22;165;53.592;10.044;2022-12-18T11:28:25;0.80;99.90
354;DHT22;165;53.592;10.044;2022-12-18T11:31:12;0.60;99.90
354;DHT22;165;53.592;10.044;2022-12-18T11:33:49;0.10;99.90
354;DHT22;165;53.592;10.044;2022-12-18T11:36:17;-0.30;99.90
354;DHT22;165;53.592;10.044;2022-12-18T11:38:45;-0.40;99.90
354;DHT22;165;53.592;10.044;2022-12-18T11:41:27;-0.40;99.90
354;DHT22;165;53.592;10.044;2022-12-18T11:44:16;-0.40;99.90
354;DHT22;165;53.592;10.044;2022-12-18T11:46:48;-0.40;99.90
354;DHT22;165;53.592;10.044;2022-12-18T11:49:20;-0.40;99.90
354;DHT22;165;53.592;10.044;2022-12-18T11:52:02;-0.40;99.90
354;DHT22;165;53.592;10.044;2022-12-18T11:54:29;-0.60;99.90
354;DHT22;165;53.592;10.044;2022-12-18T11:57:01;-0.50;99.90
354;DHT22;165;53.592;10.044;2022-12-18T11:59:53;-0.50;99.90
354;DHT22;165;53.592;10.044;2022-12-18T12:08:21;-0.50;99.90
354;DHT22;165;53.592;10.044;2022-12-18T12:16:37;-0.70;99.90
354;DHT22;165;53.592;10.044;2022-12-18T12:32:37;-0.70;99.90
354;DHT22;165;53.592;10.044;2022-12-18T12:35:18;-0.60;99.90
354;DHT22;165;53.592;10.044;2022-12-18T12:40:24;-0.60;99.90
354;DHT22;165;53.592;10.044;2022-12-18T12:42:59;-0.60;99.90
354;DHT22;165;53.592;10.044;2022-12-18T12:45:47;-0.60;99.90
354;DHT22;165;53.592;10.044;2022-12-18T12:48:43;-0.60;99.90
354;DHT22;165;53.592;10.044;2022-12-18T12:51:34;-0.40;99.90
354;DHT22;165;53.592;10.044;2022-12-18T12:54:02;-0.30;99.90
354;DHT22;165;53.592;10.044;2022-12-18T12:56:40;-0.30;99.90
354;DHT22;165;53.592;10.044;2022-12-18T13:00:15;-0.40;99.90
354;DHT22;165;53.592;10.044;2022-12-18T13:02:42;-0.30;99.90
354;DHT22;165;53.592;10.044;2022-12-18T13:08:10;-0.30;99.90
354;DHT22;165;53.592;10.044;2022-12-18T13:10:41;-0.40;99.90
354;DHT22;165;53.592;10.044;2022-12-18T13:13:15;-0.50;99.90
354;DHT22;165;53.592;10.044;2022-12-18T13:16:07;-0.40;99.90
354;DHT22;165;53.592;10.044;2022-12-18T13:18:34;-0.40;99.90
354;DHT22;165;53.592;10.044;2022-12-18T13:23:29;-0.30;99.90
354;DHT22;165;53.592;10.044;2022-12-18T13:28:51;-0.40;99.90
354;DHT22;165;53.592;10.044;2022-12-18T13:36:43;-0.60;99.90
354;DHT22;165;53.592;10.044;2022-12-18T13:41:41;-0.80;99.90
354;DHT22;165;53.592;10.044;2022-12-18T13:44:32;-1.00;99.90
354;DHT22;165;53.592;10.044;2022-12-18T13:46:59;-1.10;99.90
354;DHT22;165;53.592;10.044;2022-12-18T13:49:36;-1.10;99.90
354;DHT22;165;53.592;10.044;2022-12-18T13:52:03;-1.20;99.90
354;DHT22;165;53.592;10.044;2022-12-18T13:54:40;-1.30;99.90
354;DHT22;165;53.592;10.044;2022-12-18T13:57:26;-1.40;99.90
354;DHT22;165;53.592;10.044;2022-12-18T13:59:52;-1.40;99.90
354;DHT22;165;53.592;10.044;2022-12-18T14:02:25;-1.50;99.90
354;DHT22;165;53.592;10.044;2022-12-18T14:04:51;-1.50;99.90
354;DHT22;165;53.592;10.044;2022-12-18T14:07:22;-1.50;99.90
354;DHT22;165;53.592;10.044;2022-12-18T14:09:59;-1.60;99.90
354;DHT22;165;53.592;10.044;2022-12-18T14:12:33;-1.70;99.90
354;DHT22;165;53.592;10.044;2022-12-18T14:15:54;-1.70;99.90
354;DHT22;165;53.592;10.044;2022-12-18T14:18:24;-1.70;99.90
354;DHT22;165;53.592;10.044;2022-12-18T14:20:54;-1.70;99.90
354;DHT22;165;53.592;10.044;2022-12-18T14:23:38;-1.70;99.90
354;DHT22;165;53.592;10.044;2022-12-18T14:26:27;-1.70;99.90
354;DHT22;165;53.592;10.044;2022-12-18T14:28:59;-1.70;99.90
354;DHT22;165;53.592;10.044;2022-12-18T14:31:29;-1.80;99.90
354;DHT22;165;53.592;10.044;2022-12-18T14:33:55;-1.80;99.90
354;DHT22;165;53.592;10.044;2022-12-18T14:36:25;-1.90;99.90
354;DHT22;165;53.592;10.044;2022-12-18T14:38:55;-1.90;99.90
354;DHT22;165;53.592;10.044;2022-12-18T14:41:22;-2.00;99.90
354;DHT22;165;53.592;10.044;2022-12-18T14:43:49;-2.00;99.90
354;DHT22;165;53.592;10.044;2022-12-18T14:46:34;-2.10;99.90
354;DHT22;165;53.592;10.044;2022-12-18T14:49:03;-2.10;99.90
354;DHT22;165;53.592;10.044;2022-12-18T14:51:32;-2.10;99.90
354;DHT22;165;53.592;10.044;2022-12-18T14:54:00;-2.10;99.90
354;DHT22;165;53.592;10.044;2022-12-18T14:56:36;-2.10;99.90
354;DHT22;165;53.592;10.044;2022-12-18T14:59:16;-2.10;99.90
354;DHT22;165;53.592;10.044;2022-12-18T15:02:39;-2.10;99.90
354;DHT22;165;53.592;10.044;2022-12-18T15:04:46;-2.20;99.90
354;DHT22;165;53.592;10.044;2022-12-18T15:07:18;-2.20;99.90
354;DHT22;165;53.592;10.044;2022-12-18T15:18:03;-2.30;99.90
354;DHT22;165;53.592;10.044;2022-12-18T15:23:21;-2.30;99.90
354;DHT22;165;53.592;10.044;2022-12-18T15:25:54;-2.40;99.90
354;DHT22;165;53.592;10.044;2022-12-18T15:28:54;-2.30;99.90
354;DHT22;165;53.592;10.044;2022-12-18T15:31:32;-2.40;99.90
354;DHT22;165;53.592;10.044;2022-12-18T15:34:18;-2.40;99.90
354;DHT22;165;53.592;10.044;2022-12-18T15:36:45;-2.30;99.90
354;DHT22;165;53.592;10.044;2022-12-18T15:39:12;-2.40;99.90
354;DHT22;165;53.592;10.044;2022-12-18T15:41:38;-2.40;99.90
354;DHT22;165;53.592;10.044;2022-12-18T15:44:22;-2.30;99.90
354;DHT22;165;53.592;10.044;2022-12-18T15:46:48;-2.30;99.90
354;DHT22;165;53.592;10.044;2022-12-18T15:49:13;-2.30;99.90
354;DHT22;165;53.592;10.044;2022-12-18T15:51:39;-2.30;99.90
354;DHT22;165;53.592;10.044;2022-12-18T15:54:08;-2.20;99.90
354;DHT22;165;53.592;10.044;2022-12-18T15:56:37;-2.20;99.90
354;DHT22;165;53.592;10.044;2022-12-18T15:59:41;-2.20;99.90
354;DHT22;165;53.592;10.044;2022-12-18T16:02:15;-2.10;99.90
354;DHT22;165;53.592;10.044;2022-12-18T16:04:41;-2.10;99.90
354;DHT22;165;53.592;10.044;2022-12-18T16:07:07;-2.10;99.90
354;DHT22;165;53.592;10.044;2022-12-18T16:09:33;-2.10;99.90
354;DHT22;165;53.592;10.044;2022-12-18T16:11:58;-2.10;99.90
354;DHT22;165;53.592;10.044;2022-12-18T16:14:28;-2.10;99.90
354;DHT22;165;53.592;10.044;2022-12-18T16:16:59;-2.10;99.90
354;DHT22;165;53.592;10.044;2022-12-18T16:19:25;-2.10;99.90
354;DHT22;165;53.592;10.044;2022-12-18T16:21:52;-2.10;99.90
354;DHT22;165;53.592;10.044;2022-12-18T16:24:24;-2.10;99.90
354;DHT22;165;53.592;10.044;2022-12-18T16:26:51;-2.10;99.90
354;DHT22;165;53.592;10.044;2022-12-18T16:29:19;-2.10;99.90
354;DHT22;165;53.592;10.044;2022-12-18T16:31:52;-2.20;99.90
354;DHT22;165;53.592;10.044;2022-12-18T16:34:20;-2.10;99.90
354;DHT22;165;53.592;10.044;2022-12-18T16:36:49;-2.10;99.90
354;DHT22;165;53.592;10.044;2022-12-18T16:39:15;-2.10;99.90
354;DHT22;165;53.592;10.044;2022-12-18T16:41:41;-2.10;99.90
354;DHT22;165;53.592;10.044;2022-12-18T16:44:07;-2.20;99.90
354;DHT22;165;53.592;10.044;2022-12-18T16:46:32;-2.20;99.90
354;DHT22;165;53.592;10.044;2022-12-18T16:49:00;-2.20;99.90
354;DHT22;165;53.592;10.044;2022-12-18T16:51:27;-2.20;99.90
354;DHT22;165;53.592;10.044;2022-12-18T16:53:53;-2.10;99.90
354;DHT22;165;53.592;10.044;2022-12-18T16:56:20;-2.20;99.90
354;DHT22;165;53.592;10.044;2022-12-18T16:58:52;-2.20;99.90
354;DHT22;165;53.592;10.044;2022-12-18T17:01:18;-2.20;99.90
354;DHT22;165;53.592;10.044;2022-12-18T17:03:44;-2.20;99.90
354;DHT22;165;53.592;10.044;2022-12-18T17:06:09;-2.20;99.90
354;DHT22;165;53.592;10.044;2022-12-18T17:08:35;-2.20;99.90
354;DHT22;165;53.592;10.044;2022-12-18T17:11:05;-2.20;99.90
354;DHT22;165;53.592;10.044;2022-12-18T17:13:31;-2.20;99.90
354;DHT22;165;53.592;10.044;2022-12-18T17:16:02;-2.30;99.90
354;DHT22;165;53.592;10.044;2022-12-18T17:18:29;-2.20;99.90
354;DHT22;165;53.592;10.044;2022-12-18T17:20:59;-2.10;99.90
354;DHT22;165;53.592;10.044;2022-12-18T17:23:28;-2.20;99.90
354;DHT22;165;53.592;10.044;2022-12-18T17:25:58;-2.20;99.90
354;DHT22;165;53.592;10.044;2022-12-18T17:28:25;-2.20;99.90
354;DHT22;165;53.592;10.044;2022-12-18T17:30:52;-2.20;99.90
354;DHT22;165;53.592;10.044;2022-12-18T17:33:17;-2.10;99.90
354;DHT22;165;53.592;10.044;2022-12-18T17:35:43;-2.10;99.90
354;DHT22;165;53.592;10.044;2022-12-18T17:38:08;-2.10;99.90
354;DHT22;165;53.592;10.044;2022-12-18T17:40:37;-2.10;99.90
354;DHT22;165;53.592;10.044;2022-12-18T17:43:03;-2.10;99.90
354;DHT22;165;53.592;10.044;2022-12-18T17:45:28;-2.10;99.90
354;DHT22;165;53.592;10.044;2022-12-18T17:47:55;-2.10;99.90
354;DHT22;165;53.592;10.044;2022-12-18T17:50:20;-2.10;99.90
354;DHT22;165;53.592;10.044;2022-12-18T17:52:46;-2.10;99.90
354;DHT22;165;53.592;10.044;2022-12-18T17:55:11;-2.20;99.90
354;DHT22;165;53.592;10.044;2022-12-18T17:57:37;-2.10;99.90
354;DHT22;165;53.592;10.044;2022-12-18T18:00:05;-2.10;99.90
354;DHT22;165;53.592;10.044;2022-12-18T18:02:31;-2.10;99.90
354;DHT22;165;53.592;10.044;2022-12-18T18:04:57;-2.00;99.90
354;DHT22;165;53.592;10.044;2022-12-18T18:07:22;-2.10;99.90
354;DHT22;165;53.592;10.044;2022-12-18T18:09:48;-2.10;99.90
354;DHT22;165;53.592;10.044;2022-12-18T18:12:14;-2.10;99.90
354;DHT22;165;53.592;10.044;2022-12-18T18:14:59;-2.10;99.90
354;DHT22;165;53.592;10.044;2022-12-18T18:17:24;-2.10;99.90
354;DHT22;165;53.592;10.044;2022-12-18T18:19:50;-2.00;99.90
354;DHT22;165;53.592;10.044;2022-12-18T18:22:15;-2.10;99.90
354;DHT22;165;53.592;10.044;2022-12-18T18:24:41;-2.10;99.90
354;DHT22;165;53.592;10.044;2022-12-18T18:27:11;-2.10;99.90
354;DHT22;165;53.592;10.044;2022-12-18T18:29:36;-2.10;99.90
354;DHT22;165;53.592;10.044;2022-12-18T18:32:02;-2.10;99.90
354;DHT22;165;53.592;10.044;2022-12-18T18:34:29;-2.10;99.90
354;DHT22;165;53.592;10.044;2022-12-18T18:36:55;-2.00;99.90
354;DHT22;165;53.592;10.044;2022-12-18T18:39:24;-2.00;99.90
354;DHT22;165;53.592;10.044;2022-12-18T18:41:50;-2.10;99.90
354;DHT22;165;53.592;10.044;2022-12-18T18:44:18;-2.10;99.90
354;DHT22;165;53.592;10.044;2022-12-18T18:49:40;-2.10;99.90
354;DHT22;165;53.592;10.044;2022-12-18T18:52:07;-2.10;99.90
354;DHT22;165;53.592;10.044;2022-12-18T18:54:32;-2.10;99.90
354;DHT22;165;53.592;10.044;2022-12-18T18:56:58;-2.10;99.90
354;DHT22;165;53.592;10.044;2022-12-18T18:59:24;-2.00;99.90
354;DHT22;165;53.592;10.044;2022-12-18T19:01:50;-2.10;99.90
354;DHT22;165;53.592;10.044;2022-12-18T19:04:17;-2.10;99.90
354;DHT22;165;53.592;10.044;2022-12-18T19:06:43;-2.10;99.90
354;DHT22;165;53.592;10.044;2022-12-18T19:09:11;-2.10;99.90
354;DHT22;165;53.592;10.044;2022-12-18T19:11:37;-2.10;99.90
354;DHT22;165;53.592;10.044;2022-12-18T19:14:21;-2.10;99.90
354;DHT22;165;53.592;10.044;2022-12-18T19:16:47;-2.00;99.90
354;DHT22;165;53.592;10.044;2022-12-18T19:19:13;-2.00;99.90
354;DHT22;165;53.592;10.044;2022-12-18T19:21:46;-2.00;99.90
354;DHT22;165;53.592;10.044;2022-12-18T19:24:15;-2.00;99.90
354;DHT22;165;53.592;10.044;2022-12-18T19:26:50;-2.00;99.90
354;DHT22;165;53.592;10.044;2022-12-18T19:29:16;-2.00;99.90
354;DHT22;165;53.592;10.044;2022-12-18T19:31:42;-2.00;99.90
354;DHT22;165;53.592;10.044;2022-12-18T19:34:09;-2.00;99.90
354;DHT22;165;53.592;10.044;2022-12-18T19:36:37;-2.00;99.90
354;DHT22;165;53.592;10.044;2022-12-18T19:39:14;-2.10;99.90
354;DHT22;165;53.592;10.044;2022-12-18T19:41:40;-2.00;99.90
354;DHT22;165;53.592;10.044;2022-12-18T19:44:24;-2.00;99.90
354;DHT22;165;53.592;10.044;2022-12-18T19:49:26;-2.00;99.90
354;DHT22;165;53.592;10.044;2022-12-18T19:51:52;-2.00;99.90
354;DHT22;165;53.592;10.044;2022-12-18T19:59:24;-2.00;99.90
354;DHT22;165;53.592;10.044;2022-12-18T20:01:50;-2.00;99.90
354;DHT22;165;53.592;10.044;2022-12-18T20:04:18;-2.00;99.90
354;DHT22;165;53.592;10.044;2022-12-18T20:06:50;-2.00;99.90
354;DHT22;165;53.592;10.044;2022-12-18T20:09:18;-2.00;99.90
354;DHT22;165;53.592;10.044;2022-12-18T20:11:46;-2.00;99.90
354;DHT22;165;53.592;10.044;2022-12-18T20:14:13;-2.00;99.90
354;DHT22;165;53.592;10.044;2022-12-18T20:16:39;-2.00;99.90
354;DHT22;165;53.592;10.044;2022-12-18T20:19:05;-2.00;99.90
354;DHT22;165;53.592;10.044;2022-12-18T20:21:31;-2.00;99.90
354;DHT22;165;53.592;10.044;2022-12-18T20:23:56;-1.90;99.90
354;DHT22;165;53.592;10.044;2022-12-18T20:26:24;-1.90;99.90
354;DHT22;165;53.592;10.044;2022-12-18T20:28:49;-1.90;99.90
354;DHT22;165;53.592;10.044;2022-12-18T20:31:15;-1.90;99.90
354;DHT22;165;53.592;10.044;2022-12-18T20:33:41;-1.90;99.90
354;DHT22;165;53.592;10.044;2022-12-18T20:36:11;-1.90;99.90
354;DHT22;165;53.592;10.044;2022-12-18T20:38:37;-1.90;99.90
354;DHT22;165;53.592;10.044;2022-12-18T20:41:12;-1.90;99.90
354;DHT22;165;53.592;10.044;2022-12-18T20:43:40;-1.90;99.90
354;DHT22;165;53.592;10.044;2022-12-18T20:46:08;-1.80;99.90
354;DHT22;165;53.592;10.044;2022-12-18T20:48:35;-1.90;99.90
354;DHT22;165;53.592;10.044;2022-12-18T20:51:04;-1.90;99.90
354;DHT22;165;53.592;10.044;2022-12-18T20:53:31;-1.90;99.90
354;DHT22;165;53.592;10.044;2022-12-18T20:55:57;-1.80;99.90
354;DHT22;165;53.592;10.044;2022-12-18T20:58:23;-1.80;99.90
354;DHT22;165;53.592;10.044;2022-12-18T21:00:49;-1.80;99.90
354;DHT22;165;53.592;10.044;2022-12-18T21:03:15;-1.70;99.90
354;DHT22;165;53.592;10.044;2022-12-18T21:05:43;-1.70;99.90
354;DHT22;165;53.592;10.044;2022-12-18T21:08:10;-1.70;99.90
354;DHT22;165;53.592;10.044;2022-12-18T21:10:36;-1.70;99.90
354;DHT22;165;53.592;10.044;2022-12-18T21:13:03;-1.60;99.90
354;DHT22;165;53.592;10.044;2022-12-18T21:15:28;-1.60;99.90
354;DHT22;165;53.592;10.044;2022-12-18T21:17:54;-1.70;99.90
354;DHT22;165;53.592;10.044;2022-12-18T21:20:19;-1.60;99.90
354;DHT22;165;53.592;10.044;2022-12-18T21:22:45;-1.60;99.90
354;DHT22;165;53.592;10.044;2022-12-18T21:25:11;-1.60;99.90
354;DHT22;165;53.592;10.044;2022-12-18T21:27:36;-1.60;99.90
354;DHT22;165;53.592;10.044;2022-12-18T21:30:02;-1.60;99.90
354;DHT22;165;53.592;10.044;2022-12-18T21:32:27;-1.60;99.90
354;DHT22;165;53.592;10.044;2022-12-18T21:34:54;-1.60;99.90
354;DHT22;165;53.592;10.044;2022-12-18T21:37:19;-1.50;99.90
354;DHT22;165;53.592;10.044;2022-12-18T21:39:45;-1.50;99.90
354;DHT22;165;53.592;10.044;2022-12-18T21:42:11;-1.50;99.90
354;DHT22;165;53.592;10.044;2022-12-18T21:44:55;-1.50;99.90
354;DHT22;165;53.592;10.044;2022-12-18T21:47:21;-1.50;99.90
354;DHT22;165;53.592;10.044;2022-12-18T21:49:46;-1.60;99.90
354;DHT22;165;53.592;10.044;2022-12-18T21:52:12;-1.60;99.90
354;DHT22;165;53.592;10.044;2022-12-18T21:54:38;-1.60;99.90
354;DHT22;165;53.592;10.044;2022-12-18T21:57:05;-1.60;99.90
354;DHT22;165;53.592;10.044;2022-12-18T21:59:40;-1.60;99.90
354;DHT22;165;53.592;10.044;2022-12-18T22:02:10;-1.60;99.90
354;DHT22;165;53.592;10.044;2022-12-18T22:04:36;-1.60;99.90
354;DHT22;165;53.592;10.044;2022-12-18T22:07:03;-1.60;99.90
354;DHT22;165;53.592;10.044;2022-12-18T22:09:30;-1.70;99.90
354;DHT22;165;53.592;10.044;2022-12-18T22:11:56;-1.60;99.90
354;DHT22;165;53.592;10.044;2022-12-18T22:14:24;-1.70;99.90
354;DHT22;165;53.592;10.044;2022-12-18T22:16:50;-1.60;99.90
354;DHT22;165;53.592;10.044;2022-12-18T22:19:17;-1.60;99.90
354;DHT22;165;53.592;10.044;2022-12-18T22:21:46;-1.60;99.90
354;DHT22;165;53.592;10.044;2022-12-18T22:24:13;-1.60;99.90
354;DHT22;165;53.592;10.044;2022-12-18T22:26:40;-1.60;99.90
354;DHT22;165;53.592;10.044;2022-12-18T22:29:07;-1.60;99.90
354;DHT22;165;53.592;10.044;2022-12-18T22:31:53;-1.60;99.90
354;DHT22;165;53.592;10.044;2022-12-18T22:34:18;-1.60;99.90
354;DHT22;165;53.592;10.044;2022-12-18T22:36:46;-1.60;99.90
354;DHT22;165;53.592;10.044;2022-12-18T22:39:20;-1.60;99.90
354;DHT22;165;53.592;10.044;2022-12-18T22:41:46;-1.60;99.90
354;DHT22;165;53.592;10.044;2022-12-18T22:44:12;-1.50;99.90
354;DHT22;165;53.592;10.044;2022-12-18T22:46:43;-1.50;99.90
354;DHT22;165;53.592;10.044;2022-12-18T22:49:12;-1.50;99.90
354;DHT22;165;53.592;10.044;2022-12-18T22:51:38;-1.50;99.90
354;DHT22;165;53.592;10.044;2022-12-18T22:54:04;-1.50;99.90
354;DHT22;165;53.592;10.044;2022-12-18T22:56:29;-1.50;99.90
354;DHT22;165;53.592;10.044;2022-12-18T22:58:55;-1.50;99.90
354;DHT22;165;53.592;10.044;2022-12-18T23:01:23;-1.50;99.90
354;DHT22;165;53.592;10.044;2022-12-18T23:03:49;-1.50;99.90
354;DHT22;165;53.592;10.044;2022-12-18T23:06:16;-1.40;99.90
354;DHT22;165;53.592;10.044;2022-12-18T23:08:42;-1.50;99.90
354;DHT22;165;53.592;10.044;2022-12-18T23:11:08;-1.50;99.90
354;DHT22;165;53.592;10.044;2022-12-18T23:13:34;-1.50;99.90
354;DHT22;165;53.592;10.044;2022-12-18T23:16:02;-1.50;99.90
354;DHT22;165;53.592;10.044;2022-12-18T23:18:28;-1.50;99.90
354;DHT22;165;53.592;10.044;2022-12-18T23:20:53;-1.50;99.90
354;DHT22;165;53.592;10.044;2022-12-18T23:23:19;-1.50;99.90
354;DHT22;165;53.592;10.044;2022-12-18T23:25:44;-1.50;99.90
354;DHT22;165;53.592;10.044;2022-12-18T23:28:09;-1.50;99.90
354;DHT22;165;53.592;10.044;2022-12-18T23:30:35;-1.50;99.90
354;DHT22;165;53.592;10.044;2022-12-18T23:33:00;-1.60;99.90
354;DHT22;165;53.592;10.044;2022-12-18T23:35:26;-1.50;99.90
354;DHT22;165;53.592;10.044;2022-12-18T23:37:51;-1.50;99.90
354;DHT22;165;53.592;10.044;2022-12-18T23:40:17;-1.40;99.90
354;DHT22;165;53.592;10.044;2022-12-18T23:42:42;-1.50;99.90
354;DHT22;165;53.592;10.044;2022-12-18T23:45:08;-1.50;99.90
354;DHT22;165;53.592;10.044;2022-12-18T23:47:34;-1.40;99.90
354;DHT22;165;53.592;10.044;2022-12-18T23:50:00;-1.40;99.90
354;DHT22;165;53.592;10.044;2022-12-18T23:52:25;-1.40;99.90
354;DHT22;165;53.592;10.044;2022-12-18T23:54:51;-1.60;99.90
354;DHT22;165;53.592;10.044;2022-12-18T23:57:16;-1.50;99.90
354;DHT22;165;53.592;10.044;2022-12-18T23:59:42;-1.40;99.90
